ADDS METAR Data INFO
IDs: Format: Raw Decoded Include TAF

Data at: 1549 UTC 24 Sep 2017

KPEQ 241535Z AUTO 15008KT 10SM CLR 24/20 A2987 RMK AO2 T02380199
KPEQ 241515Z AUTO 13005KT 10SM CLR 23/20 A2986 RMK AO2 T02280196
KPEQ 241455Z AUTO 12005KT 10SM CLR 22/19 A2986 RMK AO2 T02190193
KPEQ 241435Z AUTO 08003KT 10SM CLR 21/19 A2986 RMK AO2 T02070192
KPEQ 241415Z AUTO 00000KT 10SM CLR 20/19 A2986 RMK AO2 T02000186
KPEQ 241355Z AUTO 00000KT 10SM CLR 19/19 A2986 RMK AO2 T01940186
KPEQ 241335Z AUTO 00000KT 10SM CLR 19/19 A2985 RMK AO2 T01900185
KPEQ 241315Z AUTO 00000KT 10SM CLR 19/18 A2985 RMK AO2 T01860181
KPEQ 241255Z AUTO 00000KT 10SM CLR 19/18 A2985 RMK AO2 T01850180
KPEQ 241235Z AUTO 00000KT 10SM CLR 19/18 A2985 RMK AO2 T01880181
KPEQ 241215Z AUTO 00000KT 10SM CLR 19/18 A2984 RMK AO2 T01870180
KPEQ 241155Z AUTO 00000KT 10SM SCT085 19/18 A2983 RMK AO2 60042 7//// T01880181 10196 20187
KPEQ 241135Z AUTO 00000KT 10SM CLR 19/18 A2983 RMK AO2 T01880181
KPEQ 241115Z AUTO 25003KT 10SM SCT070 19/18 A2982 RMK AO2 T01900182
KPEQ 241055Z AUTO 00000KT 10SM BKN070 BKN080 19/18 A2981 RMK AO2 T01900182
KPEQ 241035Z AUTO 24004KT 10SM SCT075 BKN080 19/18 A2982 RMK AO2 T01910183
KPEQ 241015Z AUTO 00000KT 10SM SCT100 19/18 A2982 RMK AO2 T01910181
KPEQ 240955Z AUTO 18005KT 10SM -RA SCT009 SCT049 BKN100 19/19 A2983 RMK AO2 P0020 T01900185
KPEQ 240935Z AUTO 15007KT 7SM TSRA SCT033 SCT070 OVC100 19/18 A2984 RMK AO2 LTG DSNT ALQS P0016 T01910183
KPEQ 240915Z AUTO 13009KT 7SM +TSRA SCT021 BKN085 OVC110 19/19 A2986 RMK AO2 LTG DSNT ALQS P0005 T01930187
KPEQ 240855Z AUTO 10007KT 10SM -TSRA SCT070 SCT095 OVC110 20/19 A2984 RMK AO2 LTG DSNT NE S AND SW P0006 60021 T01950188
KPEQ 240835Z AUTO 00000KT 10SM RA BKN100 BKN120 20/19 A2984 RMK AO2 LTG DSNT NE AND SW P0002 T01960190
KPEQ 240815Z AUTO 09005KT 10SM RA SCT060 BKN100 OVC120 20/19 A2984 RMK AO2 LTG DSNT SW P0001 T01950188
KPEQ 240755Z AUTO 07005KT 10SM -RA SCT070 SCT085 BKN100 19/19 A2984 RMK AO2 LTG DSNT NE AND SW P0006 T01930186
KPEQ 240735Z AUTO 06006KT 10SM -RA SCT048 BKN070 OVC110 19/19 A2982 RMK AO2 LTG DSNT E P0006 T01930187
KPEQ 240715Z AUTO 00000KT 5SM VCTSRA SCT050 SCT070 OVC100 19/19 A2984 RMK AO2 LTG DSNT NE THRU SW P0003 T01920185
KPEQ 240655Z AUTO 09003KT 10SM VCTSRA SCT046 SCT070 OVC100 19/19 A2984 RMK AO2 LTG DSNT SE THRU SW P0008 T01930186
KPEQ 240635Z AUTO 08011KT 10SM +RA SCT042 BKN100 OVC110 19/19 A2980 RMK AO2 LTG DSNT ALQS P0004 T01930186
KPEQ 240615Z AUTO 04003KT 10SM -RA SCT023 SCT040 OVC120 19/18 A2983 RMK AO2 LTG DSNT ALQS P0001 T01930183
KPEQ 240555Z AUTO 25012G20KT 5SM +TSRA SCT010 SCT026 OVC050 20/18 A2984 RMK AO2 LTG DSNT ALQS P0015 60055 T01950180 10265 20195
KPEQ 240535Z AUTO 35009KT 10SM VCTS BKN049 OVC065 20/19 A2980 RMK AO2 LTG DSNT SW THRU NE T01980185
KPEQ 240515Z AUTO 34011KT 10SM OVC049 20/18 A2982 RMK AO2 LTG DSNT ALQS T01990184
KPEQ 240455Z AUTO 32012G25KT 10SM -RA OVC047 20/18 A2983 RMK AO2 LTG DSNT ALQS T01960182
KPEQ 240435Z AUTO 28016G19KT 10SM TS SCT039 OVC047 21/17 A2984 RMK AO2 LTG DSNT ALQS T02080174
KPEQ 240410Z AUTO 34005G09KT 10SM VCTS OVC050 22/18 A2980 RMK AO2 LTG DSNT SW THRU N T02220179
KPEQ 240355Z AUTO 33012G18KT 10SM BKN050 BKN080 OVC110 22/18 A2979 RMK AO2 LTG DSNT SW THRU N T02200181
KPEQ 240335Z AUTO 13010G21KT 10SM VCTS BKN110 26/18 A2976 RMK AO2 LTG DSNT SW THRU N T02620177
KPEQ 240315Z AUTO 12021G27KT 10SM SCT120 26/18 A2973 RMK AO2 LTG DSNT SW THRU N T02620176
KPEQ 240255Z AUTO 12018G29KT 10SM CLR 26/18 A2973 RMK AO2 LTG DSNT SW THRU N 60040 T02630178
KPEQ 240235Z AUTO 12020G29KT 10SM CLR 26/18 A2972 RMK AO2 LTG DSNT W THRU N T02620180
KPEQ 240215Z AUTO 12022G31KT 10SM SCT120 26/18 A2974 RMK AO2 LTG DSNT W AND NW T02610181
KPEQ 240155Z AUTO 12019G28KT 10SM SCT060 SCT075 SCT120 26/18 A2972 RMK AO2 LTG DSNT ALQS T02610183
KPEQ 240135Z AUTO 10019G24KT 10SM BKN060 OVC075 24/19 A2973 RMK AO2 LTG DSNT NE T02370192
KPEQ 240115Z AUTO 08014KT 10SM OVC050 24/20 A2974 RMK AO2 LTG DSNT NE AND NW T02370195
KPEQ 240055Z AUTO 03015G18KT 10SM VCTS SCT043 OVC050 23/20 A2973 RMK AO2 LTG DSNT N THRU E P0040 T02280197
KPEQ 240035Z AUTO 04015G25KT 360V060 10SM -VCTSRA SCT014 BKN043 OVC050 23/20 A2973 RMK AO2 LTG DSNT NW THRU E P0040 T02290198
KPEQ 240015Z AUTO 36018G31KT 1SM +TSRA SCT009 BKN014 OVC027 21/20 A2973 RMK AO2 LTG DSNT ALQS P0033 T02120203
KPEQ 232355Z AUTO 30018KT 3SM TSRA BKN041 OVC050 21/20 A2975 RMK AO2 LTG DSNT ALQS P0043 6//// T02110201
KPEQ 232335Z AUTO 34017G26KT 5SM +TSRA SCT015 SCT024 BKN055 22/20 A2973 RMK AO2 LTG DSNT ALQS P0027 T02160195
KPEQ 232315Z AUTO 02012G18KT 2 1/2SM +VCTSRA SCT014 BKN043 OVC070 22/21 A2972 RMK AO2 VIS 1 1/2V5 LTG DSNT ALQS P0010 T02200207
KPEQ 232255Z AUTO 04014G20KT 7SM VCTSRA SCT043 SCT050 BKN070 24/22 A2972 RMK AO2 LTG DSNT ALQS P0015 T02370216
KPEQ 232235Z AUTO 01014KT 7SM -RA SCT022 SCT046 BKN070 24/22 A2972 RMK AO2 LTG DSNT N AND NE P0012 T02350217
KPEQ 232215Z AUTO 34010KT 10SM TS BKN070 BKN080 BKN100 25/20 A2973 RMK AO2 LTG DSNT ALQS T02530201
KPEQ 232155Z AUTO 36014KT 10SM VCTS SCT070 SCT090 SCT110 26/20 A2972 RMK AO2 LTG DSNT SW THRU NE T02610198
KPEQ 232135Z AUTO 35014KT 10SM VCTS BKN070 OVC090 27/19 A2972 RMK AO2 LTG DSNT N S AND W T02740192
KPEQ 232115Z AUTO 29009KT 10SM BKN070 OVC090 29/18 A2972 RMK AO2 LTG DSNT N T02850179
KPEQ 232055Z AUTO 16016G24KT 10SM SCT070 SCT090 32/16 A2972 RMK AO2 LTG DSNT N T03240164
KPEQ 232035Z AUTO 12021G27KT 10SM SCT070 SCT085 33/17 A2971 RMK AO2 LTG DSNT N AND NW T03340166
KPEQ 232015Z AUTO 12019KT 10SM CLR 33/17 A2973 RMK AO2 LTG DSNT N AND NW T03320165
KPEQ 231955Z AUTO 12018G26KT 10SM SCT065 34/17 A2974 RMK AO2 LTG DSNT NW T03380168
KPEQ 231935Z AUTO 12018G25KT 10SM SCT065 34/17 A2975 RMK AO2 LTG DSNT W AND NW T03400168
KPEQ 231915Z AUTO 12020G28KT 10SM SCT065 33/17 A2976 RMK AO2 LTG DSNT W AND NW T03290170
KPEQ 231855Z AUTO 12019G25KT 10SM CLR 33/17 A2977 RMK AO2 T03340171
KPEQ 231835Z AUTO 12015G23KT 10SM CLR 33/17 A2979 RMK AO2 T03270166
KPEQ 231815Z AUTO 12015G22KT 10SM CLR 32/17 A2980 RMK AO2 T03220166
KPEQ 231755Z AUTO 14011G17KT 10SM CLR 32/17 A2982 RMK AO2 T03200169 10320 20223
KPEQ 231735Z AUTO 14014G21KT 10SM CLR 31/17 A2982 RMK AO2 T03130171
KPEQ 231715Z AUTO 13014G17KT 10SM CLR 31/17 A2983 RMK AO2 T03070174
KPEQ 231655Z AUTO 14014G21KT 10SM CLR 30/18 A2984 RMK AO2 T02990175
KPEQ 231635Z AUTO 13017G23KT 10SM CLR 29/18 A2984 RMK AO2 T02940176
KPEQ 231615Z AUTO 13016G19KT 10SM CLR 29/18 A2985 RMK AO2 T02850175
KPEQ 231555Z AUTO 12017G22KT 10SM CLR 28/18 A2985 RMK AO2 T02810176
KPEQ 231535Z AUTO 12018KT 10SM CLR 27/18 A2985 RMK AO2 LTG DSNT NW T02740178
KPEQ 231515Z AUTO 12017G22KT 10SM CLR 26/18 A2985 RMK AO2 T02640180
KPEQ 231455Z AUTO 12018G24KT 10SM CLR 26/18 A2984 RMK AO2 LTG DSNT NW T02580181
KPEQ 231435Z AUTO 12019G24KT 10SM CLR 25/18 A2984 RMK AO2 LTG DSNT NW T02510182
KPEQ 231415Z AUTO 11016KT 10SM CLR 24/19 A2984 RMK AO2 T02420185
KPEQ 231355Z AUTO 11017KT 10SM CLR 24/19 A2984 RMK AO2 LTG DSNT W T02350185
KPEQ 231335Z AUTO 11013KT 10SM CLR 23/18 A2984 RMK AO2 T02290184
KPEQ 231315Z AUTO 11014KT 10SM CLR 23/18 A2984 RMK AO2 T02250183
KPEQ 231255Z AUTO 11015KT 10SM CLR 22/18 A2983 RMK AO2 T02230182
KPEQ 231235Z AUTO 11016G20KT 10SM CLR 22/18 A2983 RMK AO2 T02240182
KPEQ 231215Z AUTO 11015KT 10SM CLR 23/18 A2983 RMK AO2 T02250182
KPEQ 231155Z AUTO 11016G21KT 10SM CLR 23/18 A2982 RMK AO2 T02260182 10262 20226
KPEQ 231135Z AUTO 11017G20KT 10SM CLR 23/18 A2981 RMK AO2 T02270182
KPEQ 231115Z AUTO 10015KT 10SM CLR 23/18 A2981 RMK AO2 T02280182
KPEQ 231055Z AUTO 11016G20KT 10SM CLR 23/18 A2981 RMK AO2 T02280181
KPEQ 231035Z AUTO 10014G19KT 10SM CLR 23/18 A2981 RMK AO2 T02300181
KPEQ 231015Z AUTO 10015KT 10SM CLR 23/18 A2981 RMK AO2 LTG DSNT N T02300180
KPEQ 230955Z AUTO 11016KT 10SM CLR 23/18 A2981 RMK AO2 T02320180
KPEQ 230935Z AUTO 11016KT 10SM CLR 23/18 A2981 RMK AO2 T02340180
KPEQ 230915Z AUTO 11015KT 10SM CLR 24/18 A2982 RMK AO2 T02360180
KPEQ 230855Z AUTO 11016G20KT 10SM CLR 24/18 A2983 RMK AO2 T02390179
KPEQ 230835Z AUTO 12014G19KT 10SM CLR 24/18 A2982 RMK AO2 T02430178
KPEQ 230815Z AUTO 11016G23KT 10SM CLR 25/18 A2982 RMK AO2 T02470176
KPEQ 230755Z AUTO 12014KT 10SM CLR 25/17 A2983 RMK AO2 T02500172
KPEQ 230735Z AUTO 12016G21KT 10SM CLR 26/17 A2982 RMK AO2 T02550171
KPEQ 230715Z AUTO 12014G19KT 10SM CLR 26/17 A2982 RMK AO2 T02580171
KPEQ 230655Z AUTO 12010KT 10SM CLR 26/17 A2983 RMK AO2 T02570169
KPEQ 230635Z AUTO 12010KT 10SM CLR 26/17 A2983 RMK AO2 T02590168
KPEQ 230615Z AUTO 13010KT 10SM CLR 26/17 A2983 RMK AO2 T02600168
KPEQ 230535Z AUTO 12012G19KT 10SM CLR 26/17 A2983 RMK AO2 T02630168
KPEQ 230515Z AUTO 12014G19KT 10SM CLR 27/17 A2982 RMK AO2 T02650170
KPEQ 230455Z AUTO 12014KT 10SM CLR 27/17 A2983 RMK AO2 T02650171
KPEQ 230435Z AUTO 13014KT 10SM CLR 27/17 A2983 RMK AO2 T02680172
KPEQ 230415Z AUTO 13014G20KT 10SM CLR 27/17 A2983 RMK AO2 T02700171
KPEQ 230355Z AUTO 12013KT 10SM SCT120 27/17 A2983 RMK AO2 T02730170